createdAt,value
2019-05-05T00:01:55.492Z,2.80
2019-05-05T00:04:49.818Z,2.93
2019-05-05T00:07:22.859Z,2.60
2019-05-05T00:09:51.898Z,3.07
2019-05-05T00:12:38.403Z,2.97
2019-05-05T00:15:29.692Z,2.80
2019-05-05T00:17:58.581Z,3.20
2019-05-05T00:20:27.752Z,3.30
2019-05-05T00:22:56.557Z,3.10
2019-05-05T00:25:25.338Z,3.17
2019-05-05T00:27:54.613Z,3.40
2019-05-05T00:30:24.942Z,3.02
2019-05-05T00:32:54.856Z,3.20
2019-05-05T00:35:25.237Z,3.00
2019-05-05T00:37:54.485Z,2.90
2019-05-05T00:40:24.848Z,3.60
2019-05-05T00:42:54.694Z,3.30
2019-05-05T00:45:25.290Z,3.70
2019-05-05T00:48:01.022Z,2.33
2019-05-05T00:50:30.200Z,3.67
2019-05-05T00:52:58.985Z,3.10
2019-05-05T00:55:27.717Z,3.77
2019-05-05T00:57:56.731Z,2.80
2019-05-05T01:00:36.854Z,3.53
2019-05-05T01:03:05.853Z,3.22
2019-05-05T01:05:58.265Z,3.00
2019-05-05T01:08:28.944Z,3.50
2019-05-05T01:10:58.461Z,3.40
2019-05-05T01:13:27.630Z,2.87
2019-05-05T01:15:56.760Z,3.67
2019-05-05T01:18:25.760Z,3.20
2019-05-05T01:20:55.212Z,3.47
2019-05-05T01:23:24.464Z,3.67
2019-05-05T01:25:54.423Z,3.30
2019-05-05T01:28:24.924Z,3.42
2019-05-05T01:30:57.184Z,3.47
2019-05-05T01:33:40.461Z,3.10
2019-05-05T01:36:09.353Z,3.17
2019-05-05T01:38:46.469Z,3.30
2019-05-05T01:41:22.129Z,2.93
2019-05-05T01:43:50.916Z,3.22
2019-05-05T01:46:19.697Z,3.60
2019-05-05T01:48:48.505Z,2.60
2019-05-05T01:51:17.226Z,3.20
2019-05-05T01:53:45.988Z,3.05
2019-05-05T01:56:15.456Z,3.50
2019-05-05T01:58:44.781Z,3.70
2019-05-05T02:01:15.295Z,3.27
2019-05-05T02:03:44.341Z,3.40
2019-05-05T02:06:14.213Z,3.80
2019-05-05T02:08:45.273Z,3.10
2019-05-05T02:11:15.476Z,3.13
2019-05-05T02:13:45.068Z,3.83
2019-05-05T02:16:15.053Z,3.50
2019-05-05T02:18:45.074Z,3.62
2019-05-05T02:21:14.306Z,3.60
2019-05-05T02:23:45.168Z,3.70
2019-05-05T02:26:15.241Z,4.03
2019-05-05T02:28:57.292Z,3.60
2019-05-05T02:31:39.360Z,3.50
2019-05-05T02:34:09.848Z,3.60
2019-05-05T02:36:38.965Z,3.27
2019-05-05T02:39:10.374Z,3.63
2019-05-05T02:41:40.484Z,3.53
2019-05-05T02:44:09.667Z,2.97
2019-05-05T02:46:50.181Z,3.30
2019-05-05T02:49:19.440Z,3.00
2019-05-05T02:51:48.986Z,3.17
2019-05-05T02:54:20.098Z,3.00
2019-05-05T02:56:50.797Z,3.00
2019-05-05T02:59:43.513Z,3.02
2019-05-05T03:02:24.269Z,2.90
2019-05-05T03:04:53.686Z,2.60
2019-05-05T03:07:25.809Z,2.87
2019-05-05T03:09:54.970Z,3.30
2019-05-05T03:12:26.177Z,3.02
2019-05-05T03:14:58.087Z,3.00
2019-05-05T03:17:27.258Z,2.83
2019-05-05T03:19:56.491Z,3.07
2019-05-05T03:22:26.702Z,3.53
2019-05-05T03:24:56.125Z,3.25
2019-05-05T03:27:25.418Z,3.43
2019-05-05T03:29:54.595Z,3.23
2019-05-05T03:32:25.510Z,3.67
2019-05-05T03:34:54.332Z,3.60
2019-05-05T03:37:25.041Z,3.47
2019-05-05T03:40:00.605Z,3.37
2019-05-05T03:42:45.926Z,4.00
2019-05-05T03:45:39.305Z,4.00
2019-05-05T03:48:08.445Z,3.87
2019-05-05T03:50:37.344Z,4.10
2019-05-05T03:53:06.185Z,3.30
2019-05-05T03:55:36.044Z,3.22
2019-05-05T03:58:05.160Z,2.80
2019-05-05T04:01:15.493Z,2.83
2019-05-05T04:03:44.510Z,3.27
2019-05-05T04:06:14.652Z,2.93
2019-05-05T04:08:44.420Z,2.80
2019-05-05T04:11:14.382Z,2.83
2019-05-05T04:13:43.840Z,2.47
2019-05-05T04:16:23.751Z,2.92
2019-05-05T04:18:57.235Z,2.67
2019-05-05T04:21:33.181Z,2.80
2019-05-05T04:23:56.405Z,3.23
2019-05-05T04:26:25.305Z,2.40
2019-05-05T04:28:54.217Z,2.50
2019-05-05T04:31:24.190Z,2.47
2019-05-05T04:33:53.803Z,2.83
2019-05-05T04:36:23.530Z,3.00
2019-05-05T04:38:54.588Z,2.90
2019-05-05T04:41:24.540Z,2.50
2019-05-05T04:43:54.699Z,2.60
2019-05-05T04:46:24.561Z,2.63
2019-05-05T04:49:07.255Z,2.77
2019-05-05T04:51:48.739Z,2.90
2019-05-05T04:54:24.403Z,2.80
2019-05-05T04:56:53.975Z,2.50
2019-05-05T04:59:23.561Z,2.67
2019-05-05T05:01:56.119Z,2.72
2019-05-05T05:04:36.720Z,2.37
2019-05-05T05:07:06.108Z,2.67
2019-05-05T05:09:34.896Z,2.60
2019-05-05T05:12:04.099Z,3.07
2019-05-05T05:14:33.745Z,2.15
2019-05-05T05:17:04.225Z,2.50
2019-05-05T05:19:33.542Z,2.75
2019-05-05T05:22:04.833Z,2.73
2019-05-05T05:24:34.344Z,2.20
2019-05-05T05:27:05.051Z,2.77
2019-05-05T05:29:34.613Z,2.52
2019-05-05T05:32:04.300Z,2.60
2019-05-05T05:34:34.457Z,2.90
2019-05-05T05:37:04.179Z,2.60
2019-05-05T05:39:44.051Z,3.13
2019-05-05T05:42:13.715Z,2.77
2019-05-05T05:45:14.593Z,2.50
2019-05-05T05:48:01.558Z,2.73
2019-05-05T05:50:34.075Z,2.80
2019-05-05T05:53:04.742Z,2.80
2019-05-05T05:55:34.317Z,2.90
2019-05-05T05:58:04.767Z,2.60
2019-05-05T06:00:34.500Z,2.63
2019-05-05T06:03:03.883Z,2.60
2019-05-05T06:05:34.344Z,3.20
2019-05-05T06:08:04.797Z,2.93
2019-05-05T06:10:34.038Z,3.30
2019-05-05T06:13:04.154Z,2.20
2019-05-05T06:15:33.900Z,2.67
2019-05-05T06:18:04.689Z,3.00
2019-05-05T06:20:34.410Z,2.80
2019-05-05T06:23:04.204Z,2.83
2019-05-05T06:25:34.297Z,2.47
2019-05-05T06:28:04.267Z,2.30
2019-05-05T06:30:33.768Z,3.30
2019-05-05T06:33:04.870Z,2.83
2019-05-05T06:35:34.154Z,2.77
2019-05-05T06:38:04.628Z,2.30
2019-05-05T06:40:53.598Z,4.25
2019-05-05T06:43:41.290Z,2.80
2019-05-05T06:46:11.559Z,3.27
2019-05-05T06:48:43.696Z,3.93
2019-05-05T06:51:14.033Z,2.70
2019-05-05T06:53:43.550Z,9.73
2019-05-05T06:56:14.574Z,5.92
2019-05-05T06:58:44.765Z,2.90
2019-05-05T07:01:14.419Z,2.25
2019-05-05T07:03:43.839Z,2.20
2019-05-05T07:06:14.623Z,2.33
2019-05-05T07:08:44.069Z,2.50
2019-05-05T07:11:14.581Z,2.30
2019-05-05T07:13:44.401Z,2.30
2019-05-05T07:16:14.911Z,2.27
2019-05-05T07:18:44.568Z,2.30
2019-05-05T07:21:14.227Z,2.15
2019-05-05T07:23:44.523Z,1.80
2019-05-05T07:26:14.344Z,2.33
2019-05-05T07:28:44.715Z,1.60
2019-05-05T07:31:14.388Z,1.90
2019-05-05T07:33:43.870Z,1.70
2019-05-05T07:36:39.041Z,1.90
2019-05-05T07:39:08.587Z,1.80
2019-05-05T07:41:40.342Z,1.97
2019-05-05T07:44:07.977Z,1.90
2019-05-05T07:46:36.754Z,1.73
2019-05-05T07:49:06.268Z,1.90
2019-05-05T07:51:35.015Z,1.50
2019-05-05T07:54:04.025Z,2.05
2019-05-05T07:56:34.430Z,1.70
2019-05-05T07:59:03.956Z,1.63
2019-05-05T08:01:33.827Z,1.37
2019-05-05T08:04:04.463Z,1.30
2019-05-05T08:06:33.909Z,1.33
2019-05-05T08:09:05.415Z,1.60
2019-05-05T08:11:34.416Z,1.83
2019-05-05T08:14:04.051Z,1.80
2019-05-05T08:16:46.951Z,2.10
2019-05-05T08:19:34.692Z,1.90
2019-05-05T08:22:04.153Z,1.50
2019-05-05T08:24:52.005Z,1.70
2019-05-05T08:27:48.971Z,1.70
2019-05-05T08:30:38.962Z,1.40
2019-05-05T08:33:07.899Z,1.70
2019-05-05T08:35:38.728Z,1.60
2019-05-05T08:38:07.568Z,1.77
2019-05-05T08:40:36.602Z,1.30
2019-05-05T08:43:05.325Z,1.63
2019-05-05T08:45:34.992Z,1.90
2019-05-05T08:48:04.828Z,3.20
2019-05-05T08:50:34.978Z,1.63
2019-05-05T08:53:04.880Z,1.40
2019-05-05T08:55:34.735Z,1.53
2019-05-05T08:58:04.566Z,1.90
2019-05-05T09:00:33.947Z,1.90
2019-05-05T09:03:03.749Z,1.67
2019-05-05T09:05:34.386Z,1.73
2019-05-05T09:08:04.582Z,2.90
2019-05-05T09:10:34.324Z,1.63
2019-05-05T09:13:03.881Z,1.60
2019-05-05T09:15:33.819Z,1.90
2019-05-05T09:18:04.791Z,1.93
2019-05-05T09:20:34.758Z,2.27
2019-05-05T09:23:04.247Z,2.20
2019-05-05T09:25:44.673Z,2.00
2019-05-05T09:28:36.649Z,1.62
2019-05-05T09:31:05.807Z,2.10
2019-05-05T09:33:34.543Z,2.03
2019-05-05T09:36:04.692Z,2.00
2019-05-05T09:38:34.882Z,2.20
2019-05-05T09:41:03.925Z,2.00
2019-05-05T09:43:34.554Z,1.60
2019-05-05T09:46:03.946Z,2.17
2019-05-05T09:48:33.582Z,1.77
2019-05-05T09:51:04.331Z,1.57
2019-05-05T09:53:34.521Z,2.13
2019-05-05T09:56:04.181Z,1.97
2019-05-05T09:58:34.763Z,2.25
2019-05-05T10:01:04.011Z,2.35
2019-05-05T10:03:34.074Z,2.30
2019-05-05T10:06:04.908Z,2.70
2019-05-05T10:08:34.693Z,2.12
2019-05-05T10:11:04.123Z,2.30
2019-05-05T10:13:33.761Z,2.83
2019-05-05T10:16:03.959Z,2.63
2019-05-05T10:18:35.505Z,2.37
2019-05-05T10:21:04.606Z,2.13
2019-05-05T10:23:35.503Z,2.33
2019-05-05T10:26:07.428Z,2.70
2019-05-05T10:28:36.238Z,2.30
2019-05-05T10:31:05.285Z,2.30
2019-05-05T10:33:36.488Z,2.50
2019-05-05T10:36:05.382Z,1.90
2019-05-05T10:38:35.772Z,2.02
2019-05-05T10:41:05.054Z,2.65
2019-05-05T10:43:34.324Z,2.17
2019-05-05T10:46:03.900Z,2.20
2019-05-05T10:48:34.049Z,2.35
2019-05-05T10:51:04.217Z,2.40
2019-05-05T10:53:33.224Z,2.58
2019-05-05T10:56:04.265Z,2.13
2019-05-05T10:58:33.602Z,2.42
2019-05-05T11:01:04.285Z,2.60
2019-05-05T11:03:34.320Z,2.40
2019-05-05T11:06:04.568Z,2.60
2019-05-05T11:08:34.958Z,2.40
2019-05-05T11:11:04.332Z,2.30
2019-05-05T11:13:34.469Z,2.40
2019-05-05T11:16:03.974Z,1.70
2019-05-05T11:18:34.492Z,1.70
2019-05-05T11:21:04.119Z,1.20
2019-05-05T11:23:34.599Z,1.30
2019-05-05T11:26:04.080Z,1.50
2019-05-05T11:28:33.925Z,1.80
2019-05-05T11:31:04.478Z,2.10
2019-05-05T11:33:56.785Z,2.37
2019-05-05T11:36:31.862Z,2.13
2019-05-05T11:39:00.663Z,1.87
2019-05-05T11:41:29.353Z,2.07
2019-05-05T11:43:58.079Z,2.10
2019-05-05T11:46:26.804Z,1.90
2019-05-05T11:48:55.517Z,1.90
2019-05-05T11:51:24.997Z,2.20
2019-05-05T11:53:54.159Z,1.57
2019-05-05T11:56:23.420Z,1.50
2019-05-05T11:58:54.520Z,1.40
2019-05-05T12:01:24.282Z,1.50
2019-05-05T12:03:53.663Z,1.83
2019-05-05T12:06:24.654Z,1.60
2019-05-05T12:08:53.709Z,1.77
2019-05-05T12:11:24.004Z,1.93
2019-05-05T12:13:54.586Z,1.70
2019-05-05T12:16:31.634Z,1.90
2019-05-05T12:19:05.936Z,2.23
2019-05-05T12:21:34.644Z,2.15
2019-05-05T12:24:08.600Z,1.93
2019-05-05T12:26:46.218Z,1.70
2019-05-05T12:29:39.627Z,2.20
2019-05-05T12:32:12.970Z,2.20
2019-05-05T12:34:41.596Z,2.23
2019-05-05T12:37:10.391Z,2.13
2019-05-05T12:39:39.461Z,2.40
2019-05-05T12:42:08.306Z,2.20
2019-05-05T12:44:41.648Z,1.87
2019-05-05T12:47:30.573Z,2.20
2019-05-05T12:49:59.365Z,2.17
2019-05-05T12:52:28.226Z,2.40
2019-05-05T12:54:57.156Z,2.20
2019-05-05T12:57:25.854Z,2.00
2019-05-05T12:59:54.733Z,1.97
2019-05-05T13:02:23.953Z,1.60
2019-05-05T13:04:53.589Z,1.93
2019-05-05T13:07:24.309Z,1.73
2019-05-05T13:09:54.526Z,1.80
2019-05-05T13:12:24.029Z,1.80
2019-05-05T13:14:54.465Z,1.40
2019-05-05T13:17:24.731Z,1.40
2019-05-05T13:20:13.931Z,1.60
2019-05-05T13:23:08.144Z,1.65
2019-05-05T13:25:56.041Z,1.77
2019-05-05T13:28:18.354Z,1.43
2019-05-05T13:30:47.118Z,1.83
2019-05-05T13:33:15.915Z,2.60
2019-05-05T13:35:44.738Z,1.40
2019-05-05T13:38:14.579Z,1.60
2019-05-05T13:40:44.085Z,1.53
2019-05-05T13:43:14.445Z,1.70
2019-05-05T13:45:50.170Z,1.70
2019-05-05T13:48:18.944Z,1.50
2019-05-05T13:50:51.473Z,1.57
2019-05-05T13:53:20.376Z,1.50
2019-05-05T13:55:49.557Z,1.87
2019-05-05T13:58:18.349Z,1.50
2019-05-05T14:00:47.239Z,1.70
2019-05-05T14:03:16.020Z,1.80
2019-05-05T14:05:45.122Z,1.77
2019-05-05T14:08:14.808Z,1.50
2019-05-05T14:10:43.732Z,1.40
2019-05-05T14:13:12.453Z,1.85
2019-05-05T14:15:41.238Z,1.80
2019-05-05T14:18:09.999Z,1.67
2019-05-05T14:20:39.092Z,1.60
2019-05-05T14:23:07.810Z,1.67
2019-05-05T14:25:36.525Z,1.57
2019-05-05T14:28:05.581Z,1.70
2019-05-05T14:30:43.493Z,2.10
2019-05-05T14:33:16.692Z,2.23
2019-05-05T14:35:53.981Z,1.50
2019-05-05T14:38:34.734Z,1.50
2019-05-05T14:41:04.190Z,1.60
2019-05-05T14:43:34.511Z,1.67
2019-05-05T14:46:03.919Z,1.90
2019-05-05T14:48:34.029Z,1.50
2019-05-05T14:51:03.958Z,1.53
2019-05-05T14:53:34.843Z,1.57
2019-05-05T14:56:04.604Z,1.70
2019-05-05T14:58:33.961Z,1.40
2019-05-05T15:01:04.478Z,1.50
2019-05-05T15:03:33.696Z,1.57
2019-05-05T15:06:18.000Z,1.60
2019-05-05T15:08:54.292Z,1.60
2019-05-05T15:11:33.856Z,1.60
2019-05-05T15:14:04.947Z,1.77
2019-05-05T15:16:34.707Z,1.50
2019-05-05T15:19:04.054Z,1.80
2019-05-05T15:21:33.984Z,1.67
2019-05-05T15:24:02.944Z,1.73
2019-05-05T15:26:34.349Z,1.70
2019-05-05T15:29:02.577Z,1.70
2019-05-05T15:31:31.549Z,1.70
2019-05-05T15:34:00.468Z,1.67
2019-05-05T15:36:29.737Z,1.77
2019-05-05T15:38:59.387Z,1.60
2019-05-05T15:41:28.089Z,1.60
2019-05-05T15:43:57.296Z,1.73
2019-05-05T15:46:26.033Z,1.45
2019-05-05T15:48:54.791Z,1.77
2019-05-05T15:51:23.741Z,1.70
2019-05-05T15:53:54.238Z,1.70
2019-05-05T15:56:24.450Z,1.62
2019-05-05T15:58:53.309Z,1.70
2019-05-05T16:01:23.701Z,1.80
2019-05-05T16:03:54.204Z,1.80
2019-05-05T16:06:23.739Z,1.75
2019-05-05T16:08:56.324Z,1.80
2019-05-05T16:11:23.445Z,1.90
2019-05-05T16:13:54.383Z,1.80
2019-05-05T16:16:29.814Z,1.70
2019-05-05T16:19:13.983Z,1.73
2019-05-05T16:21:54.877Z,1.77
2019-05-05T16:24:26.145Z,1.67
2019-05-05T16:26:55.609Z,2.10
2019-05-05T16:29:25.380Z,1.70
2019-05-05T16:31:54.466Z,1.60
2019-05-05T16:34:23.553Z,1.73
2019-05-05T16:36:54.441Z,2.70
2019-05-05T16:39:25.256Z,2.00
2019-05-05T16:41:53.780Z,2.00
2019-05-05T16:44:23.428Z,1.63
2019-05-05T16:46:53.981Z,1.87
2019-05-05T16:49:22.920Z,1.62
2019-05-05T16:52:00.770Z,1.70
2019-05-05T16:54:34.992Z,1.80
2019-05-05T16:57:05.733Z,2.00
2019-05-05T16:59:34.308Z,1.83
2019-05-05T17:02:04.735Z,1.80
2019-05-05T17:04:35.507Z,1.82
2019-05-05T17:07:04.158Z,2.30
2019-05-05T17:09:34.454Z,2.05
2019-05-05T17:12:09.946Z,2.20
2019-05-05T17:15:00.604Z,2.30
2019-05-05T17:17:35.588Z,1.93
2019-05-05T17:20:10.780Z,1.90
2019-05-05T17:22:44.720Z,2.10
2019-05-05T17:25:13.993Z,1.70
2019-05-05T17:27:48.558Z,2.27
2019-05-05T17:30:15.118Z,1.80
2019-05-05T17:32:44.170Z,2.70
2019-05-05T17:35:14.356Z,1.70
2019-05-05T17:37:44.264Z,2.00
2019-05-05T17:40:21.327Z,1.60
2019-05-05T17:43:23.976Z,2.10
2019-05-05T17:45:59.540Z,2.10
2019-05-05T17:48:33.233Z,2.10
2019-05-05T17:51:17.768Z,2.05
2019-05-05T17:54:11.445Z,2.00
2019-05-05T17:56:40.474Z,2.60
2019-05-05T17:59:09.248Z,2.30
2019-05-05T18:01:38.338Z,2.60
2019-05-05T18:04:07.062Z,2.87
2019-05-05T18:06:40.834Z,3.80
2019-05-05T18:09:23.830Z,3.45
2019-05-05T18:12:07.157Z,3.20
2019-05-05T18:14:36.652Z,6.60
2019-05-05T18:17:05.410Z,4.85
2019-05-05T18:19:34.443Z,4.40
2019-05-05T18:22:03.148Z,4.17
2019-05-05T18:24:33.678Z,2.93
2019-05-05T18:27:04.640Z,3.50
2019-05-05T18:29:33.992Z,3.60
2019-05-05T18:32:04.331Z,3.10
2019-05-05T18:34:33.546Z,3.27
2019-05-05T18:37:03.745Z,2.93
2019-05-05T18:39:34.258Z,3.90
2019-05-05T18:42:13.837Z,3.20
2019-05-05T18:44:44.867Z,3.87
2019-05-05T18:47:18.191Z,3.77
2019-05-05T18:49:46.442Z,3.33
2019-05-05T18:52:15.140Z,3.60
2019-05-05T18:54:43.954Z,3.37
2019-05-05T18:57:13.167Z,3.40
2019-05-05T18:59:41.950Z,3.30
2019-05-05T19:02:45.183Z,3.83
2019-05-05T19:05:44.073Z,3.90
2019-05-05T19:08:17.404Z,4.13
2019-05-05T19:10:46.509Z,3.53
2019-05-05T19:13:15.408Z,4.20
2019-05-05T19:15:45.263Z,4.03
2019-05-05T19:18:14.175Z,5.20
2019-05-05T19:20:49.682Z,3.87
2019-05-05T19:23:19.289Z,3.97
2019-05-05T19:25:47.999Z,4.40
2019-05-05T19:28:17.088Z,4.33
2019-05-05T19:30:45.905Z,4.63
2019-05-05T19:33:15.543Z,5.43
2019-05-05T19:35:47.296Z,5.70
2019-05-05T19:38:15.818Z,4.97
2019-05-05T19:40:45.358Z,5.70
2019-05-05T19:43:14.601Z,6.40
2019-05-05T19:45:44.769Z,4.80
2019-05-05T19:48:14.966Z,4.50
2019-05-05T19:50:54.244Z,5.10
2019-05-05T19:53:26.660Z,5.47
2019-05-05T19:55:56.502Z,5.03
2019-05-05T19:58:25.719Z,4.60
2019-05-05T20:00:57.390Z,4.10
2019-05-05T20:03:26.601Z,3.70
2019-05-05T20:05:55.693Z,3.57
2019-05-05T20:08:38.981Z,3.80
2019-05-05T20:10:55.397Z,3.73
2019-05-05T20:13:24.176Z,3.77
2019-05-05T20:16:04.507Z,3.73
2019-05-05T20:18:34.279Z,3.80
2019-05-05T20:21:06.840Z,3.73
2019-05-05T20:23:34.153Z,3.43
2019-05-05T20:26:04.017Z,3.30
2019-05-05T20:28:33.888Z,3.73
2019-05-05T20:31:03.640Z,3.90
2019-05-05T20:33:44.704Z,3.70
2019-05-05T20:36:16.905Z,3.20
2019-05-05T20:38:48.850Z,4.00
2019-05-05T20:41:19.500Z,4.60
2019-05-05T20:43:48.270Z,3.80
2019-05-05T20:46:16.979Z,3.87
2019-05-05T20:48:45.747Z,4.23
2019-05-05T20:51:14.478Z,4.40
2019-05-05T20:53:44.786Z,4.70
2019-05-05T20:56:14.921Z,4.57
2019-05-05T20:58:44.051Z,4.40
2019-05-05T21:01:14.005Z,3.92
2019-05-05T21:03:42.860Z,4.30
2019-05-05T21:06:13.662Z,4.60
2019-05-05T21:08:44.061Z,4.37
2019-05-05T21:11:14.135Z,4.50
2019-05-05T21:13:45.079Z,3.80
2019-05-05T21:16:14.333Z,4.30
2019-05-05T21:18:43.554Z,4.67
2019-05-05T21:21:17.426Z,4.80
2019-05-05T21:23:56.312Z,4.30
2019-05-05T21:26:44.130Z,4.80
2019-05-05T21:29:14.056Z,4.70
2019-05-05T21:31:43.798Z,4.93
2019-05-05T21:34:13.965Z,5.23
2019-05-05T21:36:44.800Z,4.50
2019-05-05T21:39:14.894Z,4.37
2019-05-05T21:41:44.214Z,5.28
2019-05-05T21:44:14.671Z,4.67
2019-05-05T21:46:43.851Z,4.60
2019-05-05T21:49:13.613Z,4.63
2019-05-05T21:52:01.718Z,4.90
2019-05-05T21:54:39.235Z,4.90
2019-05-05T21:57:34.576Z,4.90
2019-05-05T22:00:05.444Z,4.13
2019-05-05T22:02:34.596Z,4.27
2019-05-05T22:05:04.146Z,4.37
2019-05-05T22:07:33.655Z,4.90
2019-05-05T22:10:04.487Z,4.47
2019-05-05T22:12:36.229Z,4.53
2019-05-05T22:15:04.615Z,4.60
2019-05-05T22:17:36.179Z,5.00
2019-05-05T22:20:17.613Z,4.77
2019-05-05T22:22:46.930Z,5.10
2019-05-05T22:25:15.670Z,5.20
2019-05-05T22:27:44.417Z,5.10
2019-05-05T22:30:14.164Z,4.90
2019-05-05T22:32:44.132Z,5.23
2019-05-05T22:35:13.996Z,4.70
2019-05-05T22:37:44.038Z,5.20
2019-05-05T22:40:20.742Z,4.80
2019-05-05T22:42:49.702Z,5.37
2019-05-05T22:45:18.609Z,4.95
2019-05-05T22:47:47.604Z,4.60
2019-05-05T22:50:16.689Z,4.67
2019-05-05T22:52:45.395Z,5.70
2019-05-05T22:55:14.300Z,4.73
2019-05-05T22:57:45.094Z,5.80
2019-05-05T23:00:26.080Z,4.40
2019-05-05T23:02:51.653Z,4.90
2019-05-05T23:05:27.274Z,5.70
2019-05-05T23:07:56.258Z,5.50
2019-05-05T23:10:25.326Z,5.57
2019-05-05T23:12:54.464Z,4.97
2019-05-05T23:15:25.467Z,6.37
2019-05-05T23:18:16.298Z,5.20
2019-05-05T23:21:10.242Z,5.90
2019-05-05T23:23:48.160Z,5.03
2019-05-05T23:26:18.061Z,5.27
2019-05-05T23:28:46.766Z,5.07
2019-05-05T23:31:16.158Z,5.87
2019-05-05T23:33:45.132Z,4.77
2019-05-05T23:36:14.791Z,5.20
2019-05-05T23:38:44.906Z,5.20
2019-05-05T23:41:14.594Z,5.30
2019-05-05T23:43:45.086Z,5.22
2019-05-05T23:46:14.459Z,5.28
2019-05-05T23:48:44.149Z,5.33
2019-05-05T23:51:13.953Z,5.17
2019-05-05T23:53:44.486Z,5.13
2019-05-05T23:56:13.660Z,5.30
2019-05-05T23:59:19.168Z,4.80
